createdAt,value
2019-02-09T00:01:10.254Z,66.66
2019-02-09T00:03:39.105Z,66.66
2019-02-09T00:06:07.804Z,66.51
2019-02-09T00:08:36.552Z,66.58
2019-02-09T00:11:05.559Z,66.43
2019-02-09T00:13:35.747Z,66.28
2019-02-09T00:16:04.862Z,66.33
2019-02-09T00:18:33.611Z,66.15
2019-02-09T00:21:02.297Z,65.97
2019-02-09T00:23:31.008Z,65.92
2019-02-09T00:25:59.750Z,65.55
2019-02-09T00:28:29.298Z,65.65
2019-02-09T00:30:57.962Z,65.65
2019-02-09T00:33:26.741Z,65.49
2019-02-09T00:35:55.429Z,65.35
2019-02-09T00:38:24.321Z,65.33
2019-02-09T00:40:53.021Z,65.50
2019-02-09T00:43:22.242Z,65.50
2019-02-09T00:45:50.941Z,65.39
2019-02-09T00:48:19.627Z,65.41
2019-02-09T00:50:50.662Z,65.36
2019-02-09T00:53:19.358Z,65.17
2019-02-09T00:55:48.025Z,64.74
2019-02-09T00:58:16.714Z,64.74
2019-02-09T01:00:45.360Z,64.49
2019-02-09T01:03:14.133Z,64.87
2019-02-09T01:05:44.635Z,64.74
2019-02-09T01:08:13.896Z,64.80
2019-02-09T01:10:42.645Z,64.60
2019-02-09T01:13:11.523Z,64.89
2019-02-09T01:15:40.220Z,65.08
2019-02-09T01:18:11.240Z,64.86
2019-02-09T01:20:39.956Z,64.87
2019-02-09T01:23:09.280Z,65.06
2019-02-09T01:25:38.070Z,65.06
2019-02-09T01:28:06.902Z,65.23
2019-02-09T01:30:36.756Z,65.16
2019-02-09T01:33:07.945Z,65.14
2019-02-09T01:35:36.650Z,64.96
2019-02-09T01:38:05.651Z,64.69
2019-02-09T01:40:34.335Z,64.69
2019-02-09T01:43:03.088Z,64.49
2019-02-09T01:45:32.921Z,64.75
2019-02-09T01:48:01.608Z,64.79
2019-02-09T01:50:31.269Z,64.63
2019-02-09T01:53:00.072Z,64.65
2019-02-09T01:55:29.516Z,64.41
2019-02-09T01:57:58.320Z,64.45
2019-02-09T02:00:29.050Z,64.74
2019-02-09T02:02:57.827Z,64.65
2019-02-09T02:05:26.592Z,65.22
2019-02-09T02:07:55.402Z,65.71
2019-02-09T02:10:35.182Z,65.61
2019-02-09T02:13:04.488Z,66.85
2019-02-09T02:15:33.241Z,66.85
2019-02-09T02:18:01.936Z,66.81
2019-02-09T02:20:31.293Z,67.14
2019-02-09T02:23:01.272Z,67.44
2019-02-09T02:25:30.027Z,67.73
2019-02-09T02:27:58.687Z,67.45
2019-02-09T02:30:32.097Z,68.22
2019-02-09T02:33:00.764Z,68.99
2019-02-09T02:35:29.556Z,69.72
2019-02-09T02:37:58.215Z,70.59
2019-02-09T02:40:26.929Z,71.00
2019-02-09T02:42:55.652Z,71.52
2019-02-09T02:45:24.440Z,72.19
2019-02-09T02:47:53.133Z,71.98
2019-02-09T02:50:21.832Z,72.81
2019-02-09T02:52:50.430Z,72.79
2019-02-09T02:55:20.767Z,73.45
2019-02-09T02:57:50.550Z,74.12
2019-02-09T03:00:31.676Z,74.33
2019-02-09T03:02:54.438Z,74.49
2019-02-09T03:05:23.793Z,75.00
2019-02-09T03:07:52.493Z,75.51
2019-02-09T03:10:21.276Z,75.14
2019-02-09T03:12:49.967Z,75.78
2019-02-09T03:15:28.998Z,75.82
2019-02-09T03:17:57.705Z,75.72
2019-02-09T03:20:26.450Z,76.00
2019-02-09T03:22:55.048Z,76.11
2019-02-09T03:25:25.548Z,75.95
2019-02-09T03:27:54.316Z,76.03
2019-02-09T03:30:22.939Z,75.14
2019-02-09T03:32:51.704Z,75.06
2019-02-09T03:35:20.476Z,76.12
2019-02-09T03:37:49.151Z,76.20
2019-02-09T03:40:18.861Z,75.42
2019-02-09T03:42:47.619Z,78.04
2019-02-09T03:45:21.349Z,78.56
2019-02-09T03:47:49.201Z,79.11
2019-02-09T03:50:17.876Z,78.23
2019-02-09T03:52:46.571Z,78.82
2019-02-09T03:55:15.313Z,79.01
2019-02-09T03:57:44.221Z,79.51
2019-02-09T04:00:16.023Z,80.13
2019-02-09T04:02:44.492Z,80.16
2019-02-09T04:05:13.245Z,80.07
2019-02-09T04:07:41.975Z,80.18
2019-02-09T04:10:11.579Z,80.23
2019-02-09T04:12:40.346Z,80.57
2019-02-09T04:15:09.698Z,79.72
2019-02-09T04:17:38.453Z,80.29
2019-02-09T04:20:08.595Z,80.13
2019-02-09T04:22:37.299Z,80.22
2019-02-09T04:25:06.246Z,80.17
2019-02-09T04:27:37.290Z,80.32
2019-02-09T04:30:10.386Z,80.12
2019-02-09T04:32:38.753Z,79.75
2019-02-09T04:35:07.713Z,80.33
2019-02-09T04:37:36.402Z,79.54
2019-02-09T04:40:06.562Z,79.22
2019-02-09T04:42:35.279Z,79.97
2019-02-09T04:45:04.114Z,79.86
2019-02-09T04:47:32.790Z,79.75
2019-02-09T04:50:01.484Z,79.78
2019-02-09T04:52:30.208Z,80.04
2019-02-09T04:54:58.965Z,79.89
2019-02-09T04:57:27.640Z,79.65
2019-02-09T04:59:56.700Z,79.67
2019-02-09T05:02:27.481Z,79.67
2019-02-09T05:04:56.126Z,79.75
2019-02-09T05:07:25.478Z,79.38
2019-02-09T05:09:54.473Z,79.00
2019-02-09T05:12:23.160Z,79.21
2019-02-09T05:14:51.874Z,79.30
2019-02-09T05:17:20.530Z,78.73
2019-02-09T05:19:50.180Z,78.59
2019-02-09T05:22:18.866Z,79.13
2019-02-09T05:24:47.548Z,79.48
2019-02-09T05:27:16.252Z,79.66
2019-02-09T05:29:44.843Z,79.93
2019-02-09T05:32:15.625Z,80.00
2019-02-09T05:34:44.350Z,79.98
2019-02-09T05:37:13.061Z,79.67
2019-02-09T05:39:41.748Z,79.90
2019-02-09T05:42:10.468Z,79.76
2019-02-09T05:44:39.115Z,80.13
2019-02-09T05:47:08.986Z,79.65
2019-02-09T05:49:37.695Z,79.34
2019-02-09T05:52:08.654Z,79.40
2019-02-09T05:54:37.310Z,79.13
2019-02-09T05:57:05.975Z,79.56
2019-02-09T05:59:34.714Z,79.23
2019-02-09T06:02:03.457Z,78.55
2019-02-09T06:04:32.145Z,78.67
2019-02-09T06:07:00.843Z,78.45
2019-02-09T06:09:29.583Z,78.69
2019-02-09T06:11:58.578Z,78.91
2019-02-09T06:14:27.311Z,78.65
2019-02-09T06:16:55.993Z,78.93
2019-02-09T06:19:24.703Z,78.83
2019-02-09T06:21:53.439Z,78.65
2019-02-09T06:24:22.138Z,78.65
2019-02-09T06:26:50.806Z,78.75
2019-02-09T06:29:19.513Z,78.71
2019-02-09T06:31:48.277Z,78.33
2019-02-09T06:34:16.910Z,78.32
2019-02-09T06:36:45.543Z,78.48
2019-02-09T06:39:14.170Z,78.18
2019-02-09T06:41:42.855Z,77.43
2019-02-09T06:44:11.549Z,77.13
2019-02-09T06:46:41.502Z,75.74
2019-02-09T06:49:10.210Z,76.71
2019-02-09T06:51:38.920Z,77.52
2019-02-09T06:54:07.526Z,76.20
2019-02-09T06:56:36.278Z,76.52
2019-02-09T06:59:04.924Z,77.15
2019-02-09T07:01:33.685Z,79.03
2019-02-09T07:04:02.372Z,78.94
2019-02-09T07:06:31.056Z,78.25
2019-02-09T07:08:59.758Z,79.21
2019-02-09T07:11:28.518Z,78.54
2019-02-09T07:13:57.239Z,79.20
2019-02-09T07:16:38.332Z,79.00
2019-02-09T07:19:07.981Z,77.93
2019-02-09T07:21:36.735Z,77.40
2019-02-09T07:24:05.567Z,76.30
2019-02-09T07:26:34.129Z,76.30
2019-02-09T07:29:02.641Z,75.65
2019-02-09T07:31:31.129Z,75.12
2019-02-09T07:34:01.176Z,75.12
2019-02-09T08:29:28.642Z,70.36
2019-02-09T08:59:10.103Z,66.48
2019-02-09T09:31:37.759Z,65.24
2019-02-09T09:36:48.320Z,65.44
2019-02-09T09:39:17.005Z,65.44
2019-02-09T09:41:45.731Z,64.79
2019-02-09T09:44:19.433Z,64.79
2019-02-09T09:46:49.487Z,65.37
2019-02-09T09:49:22.858Z,65.78
2019-02-09T09:51:59.165Z,66.95
2019-02-09T09:54:28.029Z,65.60
2019-02-09T09:57:43.432Z,65.61
2019-02-09T10:03:11.119Z,66.85
2019-02-09T10:05:47.090Z,66.62
2019-02-09T10:08:31.219Z,66.62
2019-02-09T10:14:19.584Z,66.45
2019-02-09T10:20:22.597Z,66.86
2019-02-09T10:28:36.389Z,65.82
2019-02-09T10:48:40.589Z,61.92
2019-02-09T10:51:10.402Z,60.28
2019-02-09T10:53:39.188Z,60.83
2019-02-09T10:56:08.506Z,60.13
2019-02-09T10:58:37.406Z,59.52
2019-02-09T11:01:20.010Z,59.47
2019-02-09T11:03:48.887Z,58.57
2019-02-09T11:06:17.689Z,59.44
2019-02-09T11:08:46.487Z,59.18
2019-02-09T11:11:15.316Z,58.90
2019-02-09T11:13:44.121Z,58.21
2019-02-09T11:16:13.059Z,58.05
2019-02-09T11:18:41.863Z,58.33
2019-02-09T11:21:13.212Z,57.59
2019-02-09T11:23:42.663Z,56.95
2019-02-09T11:26:11.782Z,57.37
2019-02-09T11:28:41.023Z,57.25
2019-02-09T11:31:19.348Z,57.25
2019-02-09T11:33:43.950Z,56.34
2019-02-09T11:36:12.819Z,56.18
2019-02-09T11:38:42.039Z,56.55
2019-02-09T11:41:11.098Z,57.13
2019-02-09T11:43:39.970Z,56.84
2019-02-09T11:46:11.443Z,55.91
2019-02-09T11:48:40.713Z,56.95
2019-02-09T11:54:54.744Z,56.30
2019-02-09T11:57:23.441Z,57.46
2019-02-09T11:59:52.374Z,57.44
2019-02-09T12:02:21.649Z,57.90
2019-02-09T12:04:50.191Z,56.65
2019-02-09T12:07:19.050Z,57.11
2019-02-09T12:09:47.827Z,57.02
2019-02-09T12:12:22.617Z,55.73
2019-02-09T12:14:51.859Z,55.50
2019-02-09T12:17:20.608Z,55.59
2019-02-09T12:19:49.429Z,55.58
2019-02-09T12:22:17.934Z,55.87
2019-02-09T12:24:46.412Z,54.79
2019-02-09T12:27:18.775Z,54.63
2019-02-09T12:29:47.458Z,53.61
2019-02-09T12:32:17.398Z,54.71
2019-02-09T12:34:45.972Z,54.71
2019-02-09T12:37:20.834Z,54.07
2019-02-09T12:39:52.806Z,54.56
2019-02-09T12:42:21.457Z,53.58
2019-02-09T12:44:50.061Z,54.10
2019-02-09T12:47:18.727Z,52.85
2019-02-09T12:49:47.357Z,53.34
2019-02-09T12:52:15.987Z,54.12
2019-02-09T12:54:44.536Z,54.09
